createdAt,value
2023-02-16T00:01:18.095Z,113.90
2023-02-16T00:03:45.933Z,110.57
2023-02-16T00:06:16.037Z,117.05
2023-02-16T00:08:45.552Z,109.15
2023-02-16T00:11:39.273Z,119.35
2023-02-16T00:14:10.262Z,113.53
2023-02-16T00:16:38.578Z,111.45
2023-02-16T00:19:46.043Z,107.82
2023-02-16T00:22:13.028Z,107.22
2023-02-16T00:24:40.737Z,114.20
2023-02-16T00:27:16.246Z,114.22
2023-02-16T00:29:45.830Z,116.30
2023-02-16T00:32:13.755Z,114.88
2023-02-16T00:34:42.192Z,120.80
2023-02-16T00:37:12.066Z,123.38
2023-02-16T00:39:41.938Z,111.15
2023-02-16T00:42:15.204Z,118.20
2023-02-16T00:44:45.650Z,110.05
2023-02-16T00:47:35.516Z,119.22
2023-02-16T00:50:07.488Z,118.05
2023-02-16T00:52:42.737Z,117.75
2023-02-16T00:55:13.412Z,113.40
2023-02-16T00:57:45.881Z,115.37
2023-02-16T01:00:15.571Z,115.85
2023-02-16T01:02:47.766Z,113.53
2023-02-16T01:05:15.925Z,110.72
2023-02-16T01:08:01.572Z,112.88
2023-02-16T01:10:48.080Z,103.53
2023-02-16T01:13:15.869Z,115.38
2023-02-16T01:15:44.488Z,114.38
2023-02-16T01:18:17.917Z,114.30
2023-02-16T01:20:46.446Z,118.13
2023-02-16T01:23:13.568Z,111.53
2023-02-16T01:25:42.346Z,112.75
2023-02-16T01:28:22.926Z,122.80
2023-02-16T01:30:51.819Z,118.50
2023-02-16T01:33:19.923Z,120.82
2023-02-16T01:35:47.531Z,107.32
2023-02-16T01:38:19.071Z,116.10
2023-02-16T01:41:22.532Z,114.90
2023-02-16T01:44:01.615Z,107.28
2023-02-16T01:46:38.794Z,117.15
2023-02-16T01:49:05.769Z,108.40
2023-02-16T01:51:48.859Z,115.47
2023-02-16T01:54:44.398Z,112.80
2023-02-16T01:57:23.813Z,116.70
2023-02-16T01:59:55.907Z,113.63
2023-02-16T02:02:33.838Z,120.45
2023-02-16T02:05:27.490Z,114.60
2023-02-16T02:07:58.342Z,120.20
2023-02-16T02:10:54.304Z,115.88
2023-02-16T02:13:37.518Z,115.20
2023-02-16T02:16:05.484Z,116.15
2023-02-16T02:18:33.861Z,119.85
2023-02-16T02:21:39.744Z,121.80
2023-02-16T02:24:46.655Z,113.82
2023-02-16T02:27:31.342Z,112.35
2023-02-16T02:30:16.818Z,118.25
2023-02-16T02:32:55.302Z,116.70
2023-02-16T02:35:45.150Z,117.18
2023-02-16T02:38:37.564Z,121.68
2023-02-16T02:41:45.558Z,115.72
2023-02-16T02:44:17.861Z,113.45
2023-02-16T02:46:45.279Z,112.72
2023-02-16T02:49:13.484Z,108.28
2023-02-16T02:51:43.300Z,124.40
2023-02-16T02:54:52.241Z,111.65
2023-02-16T02:57:53.817Z,115.03
2023-02-16T03:00:42.049Z,118.50
2023-02-16T03:03:27.714Z,114.57
2023-02-16T03:05:57.388Z,122.47
2023-02-16T03:08:28.832Z,111.22
2023-02-16T03:11:32.173Z,116.35
2023-02-16T03:14:08.066Z,114.60
2023-02-16T03:16:42.716Z,117.07
2023-02-16T03:19:32.281Z,118.10
2023-02-16T03:22:19.660Z,115.55
2023-02-16T03:25:06.474Z,113.45
2023-02-16T03:28:00.449Z,110.38
2023-02-16T03:30:29.096Z,106.88
2023-02-16T03:32:56.464Z,119.55
2023-02-16T03:35:24.792Z,119.32
2023-02-16T03:37:52.165Z,116.45
2023-02-16T03:40:29.599Z,115.93
2023-02-16T03:43:06.233Z,117.45
2023-02-16T03:45:36.363Z,123.93
2023-02-16T03:48:03.990Z,114.90
2023-02-16T03:50:31.347Z,112.63
2023-02-16T03:53:07.501Z,108.50
2023-02-16T03:55:53.801Z,117.90
2023-02-16T03:58:23.694Z,120.72
2023-02-16T04:00:52.323Z,116.53
2023-02-16T04:03:19.378Z,110.60
2023-02-16T04:05:47.374Z,106.18
2023-02-16T04:08:14.298Z,110.18
2023-02-16T04:10:41.788Z,112.47
2023-02-16T04:13:09.250Z,127.35
2023-02-16T04:15:36.664Z,115.65
2023-02-16T04:18:03.914Z,115.05
2023-02-16T04:20:34.805Z,121.20
2023-02-16T04:23:03.216Z,110.22
2023-02-16T04:25:30.463Z,109.90
2023-02-16T04:27:57.416Z,106.18
2023-02-16T04:30:27.444Z,113.93
2023-02-16T04:32:55.224Z,117.88
2023-02-16T04:35:22.657Z,112.35
2023-02-16T04:37:49.675Z,114.95
2023-02-16T04:40:18.078Z,109.95
2023-02-16T04:42:46.002Z,111.10
2023-02-16T04:45:14.183Z,114.78
2023-02-16T04:47:41.447Z,114.65
2023-02-16T04:50:10.344Z,109.40
2023-02-16T04:52:38.189Z,116.18
2023-02-16T04:55:07.363Z,120.55
2023-02-16T04:57:34.461Z,117.35
2023-02-16T05:00:01.780Z,110.05
2023-02-16T05:02:28.771Z,116.15
2023-02-16T05:04:56.287Z,116.03
2023-02-16T05:07:23.304Z,110.63
2023-02-16T05:09:51.651Z,116.00
2023-02-16T05:12:37.196Z,121.18
2023-02-16T05:15:05.761Z,118.30
2023-02-16T05:17:32.730Z,111.78
2023-02-16T05:20:01.788Z,113.60
2023-02-16T05:22:28.984Z,114.82
2023-02-16T05:24:56.157Z,119.32
2023-02-16T05:27:25.964Z,120.25
2023-02-16T05:29:53.558Z,115.57
2023-02-16T05:32:21.253Z,108.57
2023-02-16T05:34:48.559Z,116.20
2023-02-16T05:37:17.383Z,113.47
2023-02-16T05:39:45.437Z,119.18
2023-02-16T05:42:12.371Z,116.28
2023-02-16T05:44:39.871Z,119.22
2023-02-16T05:47:07.537Z,112.20
2023-02-16T05:49:34.976Z,116.90
2023-02-16T05:52:02.278Z,120.47
2023-02-16T05:54:29.788Z,115.80
2023-02-16T05:56:56.758Z,107.13
2023-02-16T05:59:24.098Z,115.68
2023-02-16T06:01:52.385Z,117.30
2023-02-16T06:04:21.539Z,105.82
2023-02-16T06:06:48.731Z,110.22
2023-02-16T06:09:16.163Z,118.63
2023-02-16T06:11:43.606Z,114.47
2023-02-16T06:14:14.090Z,120.50
2023-02-16T06:16:43.367Z,111.40
2023-02-16T06:19:11.578Z,104.28
2023-02-16T06:21:39.797Z,114.25
2023-02-16T06:24:09.654Z,112.68
2023-02-16T06:26:37.205Z,115.78
2023-02-16T06:29:05.221Z,112.80
2023-02-16T06:31:35.078Z,112.30
2023-02-16T06:34:04.209Z,118.25
2023-02-16T06:36:31.660Z,111.47
2023-02-16T06:38:58.960Z,112.07
2023-02-16T06:41:31.985Z,112.85
2023-02-16T06:44:00.750Z,107.28
2023-02-16T06:46:28.779Z,102.20
2023-02-16T06:48:56.684Z,117.95
2023-02-16T06:51:24.206Z,108.78
2023-02-16T06:53:51.404Z,109.97
2023-02-16T06:56:18.405Z,107.93
2023-02-16T06:58:45.652Z,106.45
2023-02-16T07:01:12.786Z,108.00
2023-02-16T07:03:40.347Z,106.32
2023-02-16T07:06:07.675Z,107.65
2023-02-16T07:08:35.932Z,101.75
2023-02-16T07:11:03.561Z,106.10
2023-02-16T07:13:31.380Z,102.35
2023-02-16T07:15:58.309Z,102.20
2023-02-16T07:18:25.609Z,97.57
2023-02-16T07:20:52.557Z,98.22
2023-02-16T07:23:20.031Z,101.97
2023-02-16T07:25:47.323Z,98.55
2023-02-16T07:28:14.864Z,101.70
2023-02-16T07:30:42.312Z,85.28
2023-02-16T07:33:10.597Z,90.55
2023-02-16T07:35:38.180Z,100.85
2023-02-16T07:38:06.144Z,100.55
2023-02-16T07:40:33.710Z,94.45
2023-02-16T07:43:02.700Z,108.30
2023-02-16T07:45:30.295Z,92.97
2023-02-16T07:47:57.509Z,95.00
2023-02-16T07:50:24.684Z,86.68
2023-02-16T07:52:52.359Z,93.38
2023-02-16T07:55:19.396Z,85.68
2023-02-16T07:57:49.426Z,95.18
2023-02-16T08:00:17.193Z,90.57
2023-02-16T08:02:45.517Z,93.65
2023-02-16T08:05:13.599Z,94.22
2023-02-16T08:07:41.975Z,87.85
2023-02-16T08:10:09.523Z,88.88
2023-02-16T08:12:37.666Z,86.88
2023-02-16T08:15:05.107Z,93.78
2023-02-16T08:17:32.664Z,88.88
2023-02-16T08:19:59.780Z,87.60
2023-02-16T08:22:27.110Z,84.68
2023-02-16T08:24:54.381Z,86.05
2023-02-16T08:27:23.161Z,82.45
2023-02-16T08:29:50.546Z,88.13
2023-02-16T08:32:18.044Z,80.35
2023-02-16T08:34:45.161Z,83.28
2023-02-16T08:37:13.569Z,81.78
2023-02-16T08:39:41.562Z,86.93
2023-02-16T08:42:11.878Z,85.25
2023-02-16T08:44:40.215Z,78.90
2023-02-16T08:47:09.533Z,87.13
2023-02-16T08:49:36.638Z,79.28
2023-02-16T08:52:05.430Z,85.82
2023-02-16T08:54:33.419Z,80.25
2023-02-16T08:57:02.961Z,84.93
2023-02-16T08:59:30.722Z,83.82
2023-02-16T09:01:59.271Z,80.18
2023-02-16T09:04:29.346Z,85.10
2023-02-16T09:06:58.496Z,89.13
2023-02-16T09:09:26.559Z,85.63
2023-02-16T09:11:53.979Z,85.15
2023-02-16T09:14:21.701Z,83.60
2023-02-16T09:16:49.420Z,79.40
2023-02-16T09:19:20.631Z,71.90
2023-02-16T09:24:18.326Z,73.32
2023-02-16T09:26:45.957Z,78.53
2023-02-16T09:29:14.842Z,78.03
2023-02-16T09:31:44.447Z,78.63
2023-02-16T09:34:21.848Z,78.13
2023-02-16T09:36:50.340Z,72.68
2023-02-16T09:39:17.730Z,73.90
2023-02-16T09:41:54.124Z,73.13
2023-02-16T09:44:33.488Z,74.72
2023-02-16T09:47:05.082Z,73.97
2023-02-16T09:49:37.235Z,77.63
2023-02-16T09:52:13.881Z,76.35
2023-02-16T09:54:51.852Z,74.00
2023-02-16T09:57:25.908Z,78.95
2023-02-16T09:59:58.606Z,73.47
2023-02-16T10:02:55.993Z,68.70
2023-02-16T10:05:36.974Z,72.05
2023-02-16T10:08:14.526Z,75.90
2023-02-16T10:10:50.914Z,72.10
2023-02-16T10:13:32.165Z,70.97
2023-02-16T10:16:01.647Z,72.27
2023-02-16T10:18:34.142Z,72.40
2023-02-16T10:21:07.046Z,68.43
2023-02-16T10:23:46.437Z,70.90
2023-02-16T10:26:16.459Z,67.55
2023-02-16T10:28:55.914Z,69.85
2023-02-16T10:31:39.003Z,62.67
2023-02-16T10:34:18.386Z,65.25
2023-02-16T10:37:10.873Z,67.65
2023-02-16T10:40:06.140Z,69.43
2023-02-16T10:42:44.594Z,65.45
2023-02-16T10:45:15.406Z,72.10
2023-02-16T10:47:45.344Z,69.00
2023-02-16T10:50:25.425Z,65.78
2023-02-16T10:52:58.285Z,73.90
2023-02-16T10:55:26.305Z,64.13
2023-02-16T10:57:57.454Z,67.53
2023-02-16T11:00:58.199Z,68.82
2023-02-16T11:03:30.528Z,65.22
2023-02-16T11:06:14.317Z,64.80
2023-02-16T11:08:49.872Z,64.70
2023-02-16T11:11:18.856Z,61.72
2023-02-16T11:13:57.311Z,66.32
2023-02-16T11:16:25.498Z,63.90
2023-02-16T11:19:08.060Z,67.60
2023-02-16T11:21:46.292Z,62.78
2023-02-16T11:24:31.937Z,65.57
2023-02-16T11:27:05.275Z,68.20
2023-02-16T11:29:32.758Z,65.50
2023-02-16T11:32:07.007Z,65.90
2023-02-16T11:34:43.964Z,65.13
2023-02-16T11:37:13.974Z,55.75
2023-02-16T11:39:49.781Z,57.58
2023-02-16T11:42:28.173Z,58.78
2023-02-16T11:44:57.285Z,62.03
2023-02-16T11:47:31.470Z,56.38
2023-02-16T11:50:21.532Z,56.67
2023-02-16T11:52:54.637Z,50.67
2023-02-16T11:55:27.180Z,56.22
2023-02-16T11:57:56.417Z,58.65
2023-02-16T12:00:24.878Z,52.63
2023-02-16T12:03:01.555Z,57.53
2023-02-16T12:05:35.077Z,60.50
2023-02-16T12:08:22.228Z,53.15
2023-02-16T12:11:10.355Z,59.50
2023-02-16T12:14:19.110Z,53.10
2023-02-16T12:17:00.919Z,59.20
2023-02-16T12:19:40.146Z,53.83
2023-02-16T12:22:32.546Z,53.10
2023-02-16T12:25:09.038Z,53.38
2023-02-16T12:27:39.492Z,52.53
2023-02-16T12:30:26.335Z,55.47
2023-02-16T12:32:57.876Z,53.08
2023-02-16T12:35:47.561Z,53.72
2023-02-16T12:38:52.310Z,54.80
2023-02-16T12:41:19.578Z,52.38
2023-02-16T12:43:58.512Z,53.78
2023-02-16T12:46:38.022Z,50.60
2023-02-16T12:49:17.988Z,55.35
2023-02-16T12:52:04.829Z,55.03
2023-02-16T12:54:40.538Z,51.65
2023-02-16T12:57:20.550Z,48.42
2023-02-16T13:00:03.067Z,56.65
2023-02-16T13:02:40.649Z,51.55
2023-02-16T13:05:18.103Z,50.85
2023-02-16T13:07:49.200Z,49.17
2023-02-16T13:10:24.642Z,52.30
2023-02-16T13:13:00.973Z,54.63
2023-02-16T13:15:30.944Z,55.70
2023-02-16T13:18:03.292Z,51.40
2023-02-16T13:20:30.731Z,54.47
2023-02-16T13:23:22.700Z,50.88
2023-02-16T13:26:01.227Z,54.25
2023-02-16T13:28:31.700Z,50.50
2023-02-16T13:31:25.202Z,49.85
2023-02-16T13:34:40.798Z,52.63
2023-02-16T13:37:52.078Z,57.60
2023-02-16T13:40:32.323Z,59.95
2023-02-16T13:43:13.950Z,51.28
2023-02-16T13:45:47.075Z,57.72
2023-02-16T13:48:22.132Z,63.70
2023-02-16T13:50:59.773Z,60.03
2023-02-16T13:53:40.199Z,55.67
2023-02-16T13:56:28.761Z,52.80
2023-02-16T13:59:19.361Z,62.20
2023-02-16T14:01:50.937Z,53.65
2023-02-16T14:04:24.774Z,61.42
2023-02-16T14:07:17.872Z,56.47
2023-02-16T14:09:47.796Z,61.65
2023-02-16T14:12:20.076Z,63.70
2023-02-16T14:14:58.003Z,57.80
2023-02-16T14:17:29.238Z,61.53
2023-02-16T14:20:25.766Z,62.75
2023-02-16T14:23:00.231Z,62.03
2023-02-16T14:25:31.173Z,68.95
2023-02-16T14:28:02.153Z,67.80
2023-02-16T14:30:51.905Z,66.18
2023-02-16T14:33:24.164Z,62.40
2023-02-16T14:36:00.778Z,62.75
2023-02-16T14:38:29.327Z,64.70
2023-02-16T14:40:57.614Z,68.13
2023-02-16T14:43:31.565Z,64.70
2023-02-16T14:46:28.607Z,65.72
2023-02-16T14:49:14.963Z,62.00
2023-02-16T14:52:03.808Z,63.72
2023-02-16T14:54:49.702Z,61.35
2023-02-16T14:57:23.553Z,69.20
2023-02-16T14:59:58.240Z,63.08
2023-02-16T15:02:38.588Z,55.55
2023-02-16T15:05:22.365Z,67.20
2023-02-16T15:07:56.203Z,63.75
2023-02-16T15:10:27.537Z,59.95
2023-02-16T15:12:57.937Z,63.85
2023-02-16T15:15:43.952Z,58.40
2023-02-16T15:18:21.318Z,66.55
2023-02-16T15:20:53.081Z,62.85
2023-02-16T15:23:23.991Z,64.13
2023-02-16T15:25:58.771Z,61.45
2023-02-16T15:28:32.498Z,63.00
2023-02-16T15:31:06.128Z,64.75
2023-02-16T15:33:37.669Z,64.40
2023-02-16T15:36:13.411Z,65.35
2023-02-16T15:38:57.189Z,61.00
2023-02-16T15:41:33.183Z,66.90
2023-02-16T15:44:03.031Z,66.15
2023-02-16T15:46:43.746Z,66.20
2023-02-16T15:49:21.680Z,64.50
2023-02-16T15:51:49.440Z,67.90
2023-02-16T15:54:28.057Z,63.17
2023-02-16T15:56:58.612Z,64.05
2023-02-16T15:59:50.060Z,65.40
2023-02-16T16:02:24.831Z,69.03
2023-02-16T16:04:56.191Z,65.45
2023-02-16T16:10:15.774Z,64.97
2023-02-16T16:12:44.851Z,64.18
2023-02-16T16:15:22.977Z,69.85
2023-02-16T16:17:52.820Z,70.82
2023-02-16T16:20:44.667Z,69.47
2023-02-16T16:23:14.792Z,69.22
2023-02-16T16:25:44.967Z,67.63
2023-02-16T16:28:34.015Z,73.50
2023-02-16T16:31:12.271Z,71.18
2023-02-16T16:33:59.837Z,69.93
2023-02-16T16:36:53.468Z,75.95
2023-02-16T16:39:26.303Z,80.05
2023-02-16T16:42:19.963Z,81.43
2023-02-16T16:44:56.870Z,69.75
2023-02-16T16:47:26.983Z,73.40
2023-02-16T16:49:56.515Z,75.53
2023-02-16T16:52:44.673Z,74.40
2023-02-16T16:55:27.390Z,80.65
2023-02-16T16:58:15.118Z,75.43
2023-02-16T17:00:42.945Z,75.60
2023-02-16T17:03:15.325Z,76.13
2023-02-16T17:05:44.273Z,82.22
2023-02-16T17:08:11.678Z,76.93
2023-02-16T17:10:41.107Z,72.57
2023-02-16T17:13:13.829Z,77.70
2023-02-16T17:15:59.659Z,82.97
2023-02-16T17:18:26.779Z,73.45
2023-02-16T17:20:54.667Z,80.03
2023-02-16T17:23:23.641Z,78.50
2023-02-16T17:25:51.261Z,83.88
2023-02-16T17:28:20.243Z,76.85
2023-02-16T17:30:47.673Z,78.90
2023-02-16T17:33:14.787Z,76.47
2023-02-16T17:35:43.734Z,79.03
2023-02-16T17:38:19.775Z,80.78
2023-02-16T17:40:49.141Z,72.85
2023-02-16T17:43:17.864Z,78.65
2023-02-16T17:45:45.784Z,76.53
2023-02-16T17:48:18.305Z,72.78
2023-02-16T17:50:46.762Z,77.65
2023-02-16T17:53:19.262Z,82.20
2023-02-16T17:55:49.505Z,75.65
2023-02-16T17:58:16.708Z,74.20
2023-02-16T18:00:45.545Z,74.97
2023-02-16T18:03:12.794Z,77.32
2023-02-16T18:05:40.440Z,77.80
2023-02-16T18:08:08.009Z,76.28
2023-02-16T18:10:43.041Z,84.38
2023-02-16T18:13:11.725Z,89.22
2023-02-16T18:15:42.343Z,81.30
2023-02-16T18:18:10.084Z,83.40
2023-02-16T18:20:37.681Z,80.97
2023-02-16T18:23:05.566Z,84.93
2023-02-16T18:25:33.768Z,85.53
2023-02-16T18:28:01.055Z,83.13
2023-02-16T18:30:28.467Z,81.90
2023-02-16T18:32:55.593Z,86.10
2023-02-16T18:35:22.931Z,85.15
2023-02-16T18:37:50.080Z,88.25
2023-02-16T18:40:19.996Z,89.72
2023-02-16T18:42:47.608Z,83.88
2023-02-16T18:45:15.108Z,85.55
2023-02-16T18:47:44.476Z,84.63
2023-02-16T18:50:12.620Z,86.53
2023-02-16T18:52:42.491Z,80.47
2023-02-16T18:55:11.394Z,89.38
2023-02-16T18:57:38.636Z,87.00
2023-02-16T19:00:07.877Z,90.30
2023-02-16T19:02:35.668Z,82.38
2023-02-16T19:05:03.890Z,81.25
2023-02-16T19:07:30.812Z,82.55
2023-02-16T19:09:58.096Z,91.75
2023-02-16T19:12:25.461Z,77.47
2023-02-16T19:14:52.768Z,80.40
2023-02-16T19:17:19.737Z,80.30
2023-02-16T19:19:46.967Z,78.75
2023-02-16T19:22:13.941Z,78.43
2023-02-16T19:24:41.405Z,75.63
2023-02-16T19:27:08.391Z,78.20
2023-02-16T19:29:35.712Z,85.28
2023-02-16T19:32:03.058Z,81.93
2023-02-16T19:34:30.368Z,84.32
2023-02-16T19:36:57.324Z,77.90
2023-02-16T19:39:24.493Z,89.75
2023-02-16T19:41:51.650Z,86.78
2023-02-16T19:44:18.980Z,82.35
2023-02-16T19:46:45.919Z,77.60
2023-02-16T19:49:15.127Z,79.22
2023-02-16T19:51:42.949Z,79.50
2023-02-16T19:54:10.256Z,76.07
2023-02-16T19:56:40.482Z,82.72
2023-02-16T19:59:08.720Z,76.95
2023-02-16T20:01:36.400Z,73.78
2023-02-16T20:04:04.048Z,82.05
2023-02-16T20:06:34.421Z,75.78
2023-02-16T20:09:01.708Z,74.83
2023-02-16T20:11:29.521Z,72.03
2023-02-16T20:13:57.686Z,68.95
2023-02-16T20:16:26.326Z,74.22
2023-02-16T20:18:56.890Z,72.55
2023-02-16T20:21:26.567Z,74.38
2023-02-16T20:23:57.631Z,73.18
2023-02-16T20:26:34.643Z,70.88
2023-02-16T20:29:04.063Z,77.28
2023-02-16T20:31:38.317Z,71.97
2023-02-16T20:34:06.687Z,78.43
2023-02-16T20:36:35.457Z,78.80
2023-02-16T20:39:04.467Z,70.75
2023-02-16T20:41:31.826Z,79.50
2023-02-16T20:43:59.100Z,75.97
2023-02-16T20:46:26.321Z,71.65
2023-02-16T20:48:54.036Z,83.97
2023-02-16T20:51:21.503Z,70.93
2023-02-16T20:53:49.269Z,80.78
2023-02-16T20:56:22.852Z,84.93
2023-02-16T20:58:52.369Z,83.38
2023-02-16T21:01:29.829Z,82.30
2023-02-16T21:03:58.740Z,77.53
2023-02-16T21:06:26.266Z,76.93
2023-02-16T21:08:53.630Z,79.63
2023-02-16T21:11:21.358Z,76.63
2023-02-16T21:13:49.072Z,78.47
2023-02-16T21:16:16.473Z,83.05
2023-02-16T21:18:44.569Z,82.03
2023-02-16T21:21:15.633Z,80.28
2023-02-16T21:26:11.843Z,77.88
2023-02-16T21:28:39.558Z,80.75
2023-02-16T21:31:13.890Z,83.13
2023-02-16T21:33:42.659Z,74.50
2023-02-16T21:36:12.605Z,79.75
2023-02-16T21:38:40.925Z,87.05
2023-02-16T21:41:25.449Z,84.57
2023-02-16T21:43:59.315Z,82.57
2023-02-16T21:46:28.167Z,83.65
2023-02-16T21:48:57.356Z,82.20
2023-02-16T21:51:32.113Z,88.55
2023-02-16T21:54:00.201Z,87.70
2023-02-16T21:56:45.518Z,87.93
2023-02-16T21:59:14.639Z,82.50
2023-02-16T22:01:47.863Z,83.25
2023-02-16T22:04:19.122Z,80.30
2023-02-16T22:06:48.847Z,79.70
2023-02-16T22:09:18.979Z,86.82
2023-02-16T22:11:46.786Z,88.05
2023-02-16T22:14:14.349Z,80.72
2023-02-16T22:16:43.906Z,76.40
2023-02-16T22:19:13.190Z,85.25
2023-02-16T22:21:42.218Z,93.15
2023-02-16T22:24:14.170Z,85.07
2023-02-16T22:29:09.414Z,86.35
2023-02-16T22:31:37.461Z,82.65
2023-02-16T22:34:13.548Z,86.18
2023-02-16T22:36:40.905Z,83.22
2023-02-16T22:39:08.447Z,83.45
2023-02-16T22:41:35.988Z,79.50
2023-02-16T22:44:03.371Z,79.82
2023-02-16T22:46:30.677Z,80.28
2023-02-16T22:48:59.047Z,79.43
2023-02-16T22:51:29.322Z,84.15
2023-02-16T22:54:01.081Z,91.50
2023-02-16T22:56:28.443Z,75.75
2023-02-16T22:58:57.791Z,83.13
2023-02-16T23:01:26.624Z,86.90
2023-02-16T23:03:58.787Z,81.25
2023-02-16T23:06:37.011Z,78.78
2023-02-16T23:09:08.905Z,79.43
2023-02-16T23:11:36.455Z,81.30
2023-02-16T23:14:04.626Z,85.32
2023-02-16T23:16:31.700Z,92.13
2023-02-16T23:19:00.179Z,75.10
2023-02-16T23:21:32.805Z,80.03
2023-02-16T23:24:00.640Z,85.15
2023-02-16T23:26:29.661Z,85.65
2023-02-16T23:29:01.488Z,76.47
2023-02-16T23:31:33.103Z,85.55
2023-02-16T23:34:02.471Z,88.68
2023-02-16T23:36:31.087Z,84.20
2023-02-16T23:39:12.141Z,88.68
2023-02-16T23:41:40.144Z,88.90
2023-02-16T23:44:08.137Z,74.35
2023-02-16T23:46:35.063Z,79.25
2023-02-16T23:49:02.791Z,78.95
2023-02-16T23:51:29.750Z,83.70
2023-02-16T23:53:57.013Z,83.65
2023-02-16T23:56:28.630Z,77.68
2023-02-16T23:58:59.254Z,80.07
